Aktuelle Bedingungen
Mostly Clear
Conditions



Pressure
1031.92 (hPa) - 30.47 (inHG)
Visibility

10.0 (km) - 6.2 (miles)
Temperatur
3  °C
Temperatur
-5  °C
Taupunkt
56  %
 Humidity
Windgeschw.
5  km/h
3  kts
3  mph
1.3  m/s
Windrichtung
N
45°
O
90°
135°
S
180°
225°
W
270°
315°
 120°

Ost Süd
Ost
Flugplatzdaten
EDDM
Munich Airport
Metar :EDDM 091250Z AUTO 12003KT 060V190 CAVOK 03/M05 Q1032
Thu 9th February 13:50 pm
Raw Metar Info
Raw METAR ist das weltweit gebräuchlichste Format für die Übermittlung von Wetterbeobachtungsdaten. Es ist durch die Internationale Zivilluftfahrt-Organisation (ICAO) in hohem Maße standardisiert, so dass es fast überall auf der Welt verstanden wird..
API Info
Data Provided by
https://www.checkwx.com/weather/EDDM

Aviation Weather providing METAR, TAF, AIRMET, SIGMET and OUTLOOK Weather Reports
© Info
CSS/SVG/PHP scripts were developed by weather34 for use in the weather34 template © 2015-2023

Guide Info provided by Metar-Wikipedia